^^
Station Historical Data
Daily Summary for April 26, 2017 Units:  Metric    English   Both
« Previous Day
Next Day »
Daily Weekly Monthly Yearly Custom
  High: Low: Average:
Temperature: 29.7 °C 19.4 °C 24.1 °C
Dew Point: 13.1 °C 7.9 °C 10.8 °C
Humidity: 64% 27% 46%
Wind Speed: 24.1km/h 0km/h 5.3km/h
Wind Gust: 33.8km/h - -
Wind- - SE
Pressure: 1012.8 hPa 1009.4 hPa -
Precipitation: 0 mm    
Historical Graphs
 
 
Tabular Data for April 26, 2017
Time Temperature Dew Point Pressure Wind Wind Speed Wind Gust Humidity Rainfall Rate (Hourly) solar Conditions
11:19 26 °C 10.6 °C 1012.8 hPa North 9.7 km/h 22.5 km/h 38% 0 mm 207.0 W/m2
11:24 26 °C 10.6 °C 1012.4 hPa NNW 14.3 km/h 20.9 km/h 38% 0 mm 271.0 W/m2
11:50 27.1 °C 10.3 °C 1012.1 hPa NNE 9.7 km/h 22.5 km/h 35% 0 mm 610.0 W/m2
12:15 27.7 °C 10 °C 1011.4 hPa North 17.7 km/h 30.6 km/h 33% 0 mm 696.0 W/m2
12:29 28 °C 9.3 °C 1011.1 hPa North 22.7 km/h 33.8 km/h 31% 0 mm 691.0 W/m2
13:06 28.4 °C 8.7 °C 1010.4 hPa NNW 11.1 km/h 17.7 km/h 29% 0 mm 659.0 W/m2
13:35 28.6 °C 8.8 °C 1010 hPa NE 9.7 km/h 24.1 km/h 29% 0 mm 621.0 W/m2
13:55 29.1 °C 8.2 °C 1009.7 hPa NNW 14.3 km/h 17.7 km/h 27% 0 mm 643.0 W/m2
14:14 28.7 °C 7.9 °C 1009.7 hPa NNW 7.9 km/h 19.3 km/h 27% 0 mm 526.0 W/m2
14:20 28.9 °C 8 °C 1009.4 hPa NNE 19.5 km/h 29 km/h 27% 0 mm 636.0 W/m2
14:35 29.4 °C 8.4 °C 1009.4 hPa North 13 km/h 24.1 km/h 27% 0 mm 603.0 W/m2
14:41 29.3 °C 8.4 °C 1009.4 hPa NNE 24.1 km/h 29 km/h 27% 0 mm 559.0 W/m2
15:06 29.7 °C 8.7 °C 1009.4 hPa Calm   9.7 km/h 27% 0 mm 475.0 W/m2
15:41 28.5 °C 8.2 °C 1009.4 hPa North 13 km/h 16.1 km/h 28% 0 mm 98.0 W/m2
15:54 28.9 °C 8.6 °C 1009.4 hPa North 16.3 km/h 29 km/h 28% 0 mm 269.0 W/m2
16:03 28.5 °C 8.2 °C 1009.4 hPa North 13 km/h 22.5 km/h 28% 0 mm 62.0 W/m2
16:29 27.2 °C 8.6 °C 1009.4 hPa NE 11.1 km/h 14.5 km/h 31% 0 mm 30.0 W/m2
16:37 26.9 °C 8.8 °C 1009.4 hPa NE 1.4 km/h 9.7 km/h 32% 0 mm 23.0 W/m2
16:43 26.9 °C 8.8 °C 1009.4 hPa Calm     32% 0 mm 21.0 W/m2
20:27 22.7 °C 10.5 °C 1012.1 hPa Calm     46% 0 mm 0.0 W/m2
20:47 22.9 °C 10.3 °C 1012.1 hPa Calm     45% 0 mm 0.0 W/m2
20:56 22.7 °C 10.2 °C 1012.4 hPa Calm     45% 0 mm 0.0 W/m2
21:04 22.5 °C 10.3 °C 1012.1 hPa Calm     46% 0 mm 0.0 W/m2
21:10 22.6 °C 10.4 °C 1012.4 hPa Calm     46% 0 mm 0.0 W/m2
21:45 21.8 °C 12.6 °C 1012.4 hPa Calm     56% 0 mm 0.0 W/m2
21:56 21.6 °C 13 °C 1012.4 hPa Calm     58% 0 mm 0.0 W/m2
22:01 21.3 °C 13 °C 1012.4 hPa Calm     59% 0 mm 0.0 W/m2
22:11 21.2 °C 13.1 °C 1012.4 hPa Calm     60% 0 mm 0.0 W/m2
22:26 21 °C 12.9 °C 1012.4 hPa Calm     60% 0 mm 0.0 W/m2
22:31 20.9 °C 12.8 °C 1012.4 hPa Calm     60% 0 mm 0.0 W/m2
22:41 20.9 °C 13.1 °C 1012.4 hPa Calm     61% 0 mm 0.0 W/m2
22:47 20.8 °C 13 °C 1012.4 hPa Calm     61% 0 mm 0.0 W/m2
22:57 20.6 °C 12.8 °C 1012.4 hPa Calm     61% 0 mm 0.0 W/m2
23:07 20.4 °C 12.9 °C 1012.4 hPa Calm     62% 0 mm 0.0 W/m2
23:13 20.4 °C 12.9 °C 1012.4 hPa Calm     62% 0 mm 0.0 W/m2
23:18 20.4 °C 12.9 °C 1012.4 hPa Calm     62% 0 mm 0.0 W/m2
23:23 20.3 °C 12.8 °C 1012.4 hPa Calm     62% 0 mm 0.0 W/m2
23:29 20.2 °C 12.7 °C 1012.4 hPa Calm     62% 0 mm 0.0 W/m2
23:35 20.1 °C 12.6 °C 1012.4 hPa Calm     62% 0 mm 0.0 W/m2
23:40 19.9 °C 12.4 °C 1012.4 hPa Calm     62% 0 mm 0.0 W/m2
23:45 19.7 °C 12.5 °C 1012.4 hPa Calm     63% 0 mm 0.0 W/m2
23:50 19.6 °C 12.6 °C 1012.4 hPa Calm     64% 0 mm 0.0 W/m2
23:56 19.4 °C 12.4 °C 1012.4 hPa Calm     64% 0 mm 0.0 W/m2
Canyon Roadhouse, Fishriver Canyon, Namibia
Compliments of Weather Underground - 1.75 mb